createdAt,value
2018-09-11T00:02:27.975Z,71.92
2018-09-11T00:04:57.127Z,72.01
2018-09-11T00:07:25.960Z,72.90
2018-09-11T00:09:54.796Z,72.47
2018-09-11T00:12:23.701Z,72.75
2018-09-11T00:14:52.455Z,73.07
2018-09-11T00:17:21.272Z,72.55
2018-09-11T00:19:50.076Z,74.29
2018-09-11T00:22:18.945Z,73.11
2018-09-11T00:24:47.861Z,73.50
2018-09-11T00:27:16.793Z,72.89
2018-09-11T00:29:45.549Z,73.32
2018-09-11T00:32:14.422Z,72.89
2018-09-11T00:34:43.518Z,72.53
2018-09-11T00:37:12.669Z,72.64
2018-09-11T00:39:41.531Z,73.09
2018-09-11T00:42:10.360Z,73.50
2018-09-11T00:44:39.259Z,73.49
2018-09-11T00:47:08.560Z,73.53
2018-09-11T00:49:37.732Z,73.58
2018-09-11T00:52:06.542Z,74.03
2018-09-11T00:54:35.452Z,73.77
2018-09-11T00:57:04.219Z,73.80
2018-09-11T00:59:33.298Z,74.50
2018-09-11T01:02:02.183Z,74.04
2018-09-11T01:04:31.091Z,74.35
2018-09-11T01:06:59.948Z,74.16
2018-09-11T01:09:28.784Z,74.57
2018-09-11T01:11:57.621Z,74.85
2018-09-11T01:14:26.556Z,74.63
2018-09-11T01:16:55.374Z,74.42
2018-09-11T01:19:24.250Z,74.71
2018-09-11T01:21:53.200Z,74.35
2018-09-11T01:24:22.036Z,74.76
2018-09-11T01:26:50.914Z,75.33
2018-09-11T01:29:19.738Z,75.87
2018-09-11T01:31:48.808Z,75.64
2018-09-11T01:34:17.661Z,77.00
2018-09-11T01:36:46.570Z,76.46
2018-09-11T01:39:15.448Z,76.41
2018-09-11T01:41:44.269Z,75.93
2018-09-11T01:44:13.108Z,75.81
2018-09-11T01:46:41.943Z,75.95
2018-09-11T01:49:10.854Z,76.04
2018-09-11T01:51:39.933Z,76.91
2018-09-11T01:54:08.708Z,76.43
2018-09-11T01:56:37.519Z,76.73
2018-09-11T01:59:06.468Z,76.46
2018-09-11T02:01:35.343Z,76.06
2018-09-11T02:04:04.199Z,76.88
2018-09-11T02:06:33.096Z,76.09
2018-09-11T02:09:01.923Z,75.87
2018-09-11T02:11:30.774Z,76.71
2018-09-11T02:13:59.576Z,76.43
2018-09-11T02:16:28.452Z,76.18
2018-09-11T02:18:57.256Z,76.51
2018-09-11T02:21:26.129Z,75.83
2018-09-11T02:23:55.186Z,75.31
2018-09-11T02:26:24.009Z,75.53
2018-09-11T02:28:52.877Z,75.26
2018-09-11T02:31:21.689Z,74.43
2018-09-11T02:33:50.456Z,74.97
2018-09-11T02:36:19.294Z,74.98
2018-09-11T02:38:48.128Z,74.77
2018-09-11T02:41:16.960Z,74.37
2018-09-11T02:43:45.816Z,74.19
2018-09-11T02:46:14.633Z,74.20
2018-09-11T02:48:43.474Z,74.28
2018-09-11T02:51:12.300Z,74.07
2018-09-11T02:53:41.216Z,73.55
2018-09-11T02:56:10.000Z,73.78
2018-09-11T02:58:38.842Z,73.90
2018-09-11T03:01:07.641Z,74.44
2018-09-11T03:03:36.504Z,74.09
2018-09-11T03:06:05.633Z,73.99
2018-09-11T03:08:34.497Z,74.14
2018-09-11T03:11:03.264Z,74.65
2018-09-11T03:13:32.100Z,73.77
2018-09-11T03:16:01.238Z,73.92
2018-09-11T03:18:30.250Z,75.11
2018-09-11T03:20:59.040Z,74.52
2018-09-11T03:23:27.896Z,74.46
2018-09-11T03:25:56.666Z,74.53
2018-09-11T03:28:25.548Z,74.69
2018-09-11T03:30:54.424Z,74.36
2018-09-11T03:33:23.197Z,74.47
2018-09-11T03:35:52.060Z,75.16
2018-09-11T03:38:20.867Z,74.65
2018-09-11T03:40:49.779Z,74.30
2018-09-11T03:43:18.867Z,74.88
2018-09-11T03:45:48.334Z,74.28
2018-09-11T03:48:19.852Z,74.30
2018-09-11T03:50:49.895Z,74.67
2018-09-11T03:53:18.900Z,74.97
2018-09-11T03:55:48.208Z,74.78
2018-09-11T03:58:17.750Z,74.88
2018-09-11T04:00:46.696Z,75.22
2018-09-11T04:03:15.472Z,75.09
2018-09-11T04:05:44.382Z,75.40
2018-09-11T04:08:13.219Z,76.05
2018-09-11T04:10:42.368Z,75.45
2018-09-11T04:13:11.144Z,75.30
2018-09-11T04:15:39.956Z,75.82
2018-09-11T04:18:08.730Z,75.33
2018-09-11T04:20:37.618Z,75.36
2018-09-11T04:23:06.552Z,75.48
2018-09-11T04:25:35.428Z,75.10
2018-09-11T04:28:04.250Z,75.21
2018-09-11T04:30:33.061Z,75.56
2018-09-11T04:33:01.971Z,75.42
2018-09-11T04:35:30.737Z,75.37
2018-09-11T04:37:59.563Z,76.30
2018-09-11T04:40:28.324Z,76.28
2018-09-11T04:42:57.197Z,76.09
2018-09-11T04:45:26.058Z,76.25
2018-09-11T04:47:54.895Z,76.01
2018-09-11T04:50:23.702Z,75.55
2018-09-11T04:52:52.575Z,76.27
2018-09-11T04:55:21.391Z,75.81
2018-09-11T04:57:50.277Z,76.05
2018-09-11T05:00:19.405Z,76.13
2018-09-11T05:02:48.276Z,76.61
2018-09-11T05:05:17.492Z,76.07
2018-09-11T05:07:46.411Z,75.67
2018-09-11T05:10:15.577Z,76.04
2018-09-11T05:12:44.443Z,76.39
2018-09-11T05:15:13.303Z,76.45
2018-09-11T05:17:42.308Z,76.90
2018-09-11T05:20:11.112Z,77.07
2018-09-11T05:22:40.002Z,76.87
2018-09-11T05:25:09.241Z,76.89
2018-09-11T05:27:38.071Z,76.80
2018-09-11T05:30:07.635Z,76.36
2018-09-11T05:32:36.428Z,76.68
2018-09-11T05:35:05.385Z,76.73
2018-09-11T05:37:34.172Z,76.31
2018-09-11T05:40:03.032Z,76.16
2018-09-11T05:42:32.144Z,76.75
2018-09-11T05:45:01.651Z,76.84
2018-09-11T05:47:30.507Z,76.24
2018-09-11T05:49:59.418Z,75.80
2018-09-11T05:52:34.946Z,76.71
2018-09-11T05:55:03.926Z,76.43
2018-09-11T05:57:32.991Z,76.85
2018-09-11T06:00:01.902Z,76.15
2018-09-11T06:02:30.875Z,76.41
2018-09-11T06:04:59.893Z,76.20
2018-09-11T06:07:28.650Z,76.82
2018-09-11T06:09:57.572Z,76.70
2018-09-11T06:12:26.384Z,77.06
2018-09-11T06:14:55.215Z,76.33
2018-09-11T06:17:23.992Z,75.80
2018-09-11T06:19:52.928Z,77.22
2018-09-11T06:22:21.803Z,76.10
2018-09-11T06:24:50.622Z,75.88
2018-09-11T06:27:19.479Z,75.65
2018-09-11T06:29:48.334Z,75.86
2018-09-11T06:32:17.171Z,75.91
2018-09-11T06:34:46.015Z,75.20
2018-09-11T06:37:14.858Z,74.60
2018-09-11T06:39:43.790Z,75.43
2018-09-11T06:42:12.655Z,75.62
2018-09-11T06:44:41.462Z,75.75
2018-09-11T06:47:10.488Z,75.95
2018-09-11T06:49:39.251Z,75.68
2018-09-11T06:52:08.116Z,74.26
2018-09-11T06:54:37.087Z,72.86
2018-09-11T06:57:06.135Z,72.87
2018-09-11T06:59:34.998Z,71.79
2018-09-11T07:02:03.911Z,71.52
2018-09-11T07:04:32.740Z,71.02
2018-09-11T07:07:01.838Z,70.81
2018-09-11T07:09:30.579Z,72.07
2018-09-11T07:11:59.468Z,70.99
2018-09-11T07:14:28.234Z,71.47
2018-09-11T07:16:57.073Z,71.08
2018-09-11T07:19:25.842Z,71.44
2018-09-11T07:21:54.806Z,72.14
2018-09-11T07:24:23.976Z,71.93
2018-09-11T07:26:52.846Z,72.16
2018-09-11T07:29:21.825Z,71.39
2018-09-11T07:31:50.752Z,70.47
2018-09-11T07:34:19.583Z,70.20
2018-09-11T07:36:48.440Z,70.18
2018-09-11T07:39:17.279Z,70.12
2018-09-11T07:41:46.150Z,70.12
2018-09-11T07:44:15.010Z,70.13
2018-09-11T07:46:43.796Z,69.25
2018-09-11T07:49:12.790Z,68.85
2018-09-11T07:51:41.582Z,67.69
2018-09-11T07:54:10.435Z,68.69
2018-09-11T07:56:45.835Z,66.38
2018-09-11T07:59:14.797Z,67.61
2018-09-11T08:01:43.643Z,66.75
2018-09-11T08:04:12.493Z,66.56
2018-09-11T08:06:41.352Z,66.30
2018-09-11T08:09:12.245Z,65.34
2018-09-11T08:11:41.134Z,65.75
2018-09-11T08:14:10.071Z,64.25
2018-09-11T08:16:39.015Z,64.95
2018-09-11T08:19:07.844Z,64.24
2018-09-11T08:21:36.681Z,63.83
2018-09-11T08:24:05.566Z,63.96
2018-09-11T08:26:34.472Z,65.60
2018-09-11T08:29:03.388Z,65.94
2018-09-11T08:31:32.662Z,65.60
2018-09-11T08:34:01.519Z,64.59
2018-09-11T08:36:30.451Z,64.88
2018-09-11T08:38:59.350Z,63.86
2018-09-11T08:41:28.255Z,63.65
2018-09-11T08:43:57.028Z,64.59
2018-09-11T08:46:25.913Z,63.04
2018-09-11T08:48:54.761Z,64.23
2018-09-11T08:51:23.583Z,64.13
2018-09-11T08:53:52.379Z,63.07
2018-09-11T08:56:21.204Z,63.06
2018-09-11T08:58:50.034Z,62.58
2018-09-11T09:01:19.076Z,61.70
2018-09-11T09:03:47.852Z,60.96
2018-09-11T09:06:16.735Z,60.64
2018-09-11T09:08:45.558Z,61.43
2018-09-11T09:11:14.424Z,60.38
2018-09-11T09:13:43.271Z,60.11
2018-09-11T09:16:12.192Z,59.31
2018-09-11T09:18:41.009Z,59.41
2018-09-11T09:21:09.868Z,60.06
2018-09-11T09:23:38.961Z,59.12
2018-09-11T09:26:07.791Z,61.04
2018-09-11T09:28:36.651Z,59.50
2018-09-11T09:31:05.449Z,59.40
2018-09-11T09:33:34.365Z,61.22
2018-09-11T09:36:03.178Z,61.19
2018-09-11T09:38:32.113Z,60.53
2018-09-11T09:41:00.966Z,59.99
2018-09-11T09:43:29.799Z,59.00
2018-09-11T09:45:58.610Z,57.94
2018-09-11T09:48:27.410Z,57.62
2018-09-11T09:50:56.340Z,57.69
2018-09-11T09:53:25.125Z,57.60
2018-09-11T09:55:54.431Z,57.77
2018-09-11T09:58:23.244Z,57.37
2018-09-11T10:01:59.916Z,57.15
2018-09-11T10:04:28.813Z,57.34
2018-09-11T10:06:57.638Z,57.51
2018-09-11T10:09:26.791Z,56.60
2018-09-11T10:11:55.625Z,56.74
2018-09-11T10:14:24.421Z,56.13
2018-09-11T10:16:53.264Z,56.65
2018-09-11T10:19:22.193Z,56.44
2018-09-11T10:21:51.008Z,56.31
2018-09-11T10:24:19.828Z,55.52
2018-09-11T10:26:48.599Z,57.19
2018-09-11T10:29:17.501Z,56.17
2018-09-11T10:31:46.368Z,56.52
2018-09-11T10:34:15.235Z,55.76
2018-09-11T10:36:44.033Z,55.46
2018-09-11T10:39:12.990Z,55.97
2018-09-11T10:41:41.816Z,55.36
2018-09-11T10:44:10.666Z,55.27
2018-09-11T10:46:39.509Z,55.05
2018-09-11T10:49:08.300Z,54.13
2018-09-11T10:51:37.475Z,54.37
2018-09-11T10:54:06.601Z,54.56
2018-09-11T10:56:35.516Z,54.90
2018-09-11T10:59:04.563Z,55.06
2018-09-11T11:01:33.427Z,54.91
2018-09-11T11:04:02.332Z,55.08
2018-09-11T11:06:31.296Z,55.65
2018-09-11T11:09:00.349Z,55.41
2018-09-11T11:11:29.222Z,55.78
2018-09-11T11:13:57.979Z,55.04
2018-09-11T11:16:26.961Z,55.94
2018-09-11T11:18:55.865Z,55.97
2018-09-11T11:21:24.744Z,55.63
2018-09-11T11:23:53.532Z,54.73
2018-09-11T11:26:22.343Z,54.22
2018-09-11T11:28:51.110Z,54.46
2018-09-11T11:31:20.048Z,54.14
2018-09-11T11:33:48.945Z,54.16
2018-09-11T11:36:17.950Z,54.55
2018-09-11T11:38:46.631Z,53.68
2018-09-11T11:41:15.840Z,51.95
2018-09-11T11:43:44.781Z,51.45
2018-09-11T11:46:13.906Z,51.87
2018-09-11T11:48:42.789Z,52.14
2018-09-11T11:51:11.587Z,51.97
2018-09-11T11:53:40.441Z,52.00
2018-09-11T11:56:09.375Z,52.32
2018-09-11T11:58:38.544Z,52.05
2018-09-11T12:01:07.460Z,52.67
2018-09-11T12:03:36.308Z,51.57
2018-09-11T12:06:05.316Z,51.56
2018-09-11T12:08:34.232Z,51.38
2018-09-11T12:11:03.038Z,52.13
2018-09-11T12:13:31.891Z,52.51
2018-09-11T12:16:00.713Z,53.00
2018-09-11T12:18:29.572Z,52.87
2018-09-11T12:20:58.471Z,53.43
2018-09-11T12:23:27.292Z,52.48
2018-09-11T12:25:56.113Z,52.41
2018-09-11T12:28:25.008Z,52.56
2018-09-11T12:30:54.239Z,53.23
2018-09-11T12:33:23.737Z,53.88
2018-09-11T12:35:52.556Z,54.00
2018-09-11T12:38:21.338Z,55.45
2018-09-11T12:40:50.424Z,54.90
2018-09-11T12:43:19.488Z,54.97
2018-09-11T12:45:48.489Z,55.24
2018-09-11T12:48:17.525Z,55.00
2018-09-11T12:50:46.103Z,54.99
2018-09-11T12:53:14.880Z,55.19
2018-09-11T12:55:43.769Z,54.99
2018-09-11T12:58:12.645Z,54.33
2018-09-11T13:00:41.479Z,53.83
2018-09-11T13:03:10.265Z,53.44
2018-09-11T13:05:39.145Z,53.47
2018-09-11T13:08:07.999Z,52.51
2018-09-11T13:10:37.285Z,51.97
2018-09-11T13:13:06.128Z,52.79
2018-09-11T13:15:34.949Z,52.55
2018-09-11T13:18:03.738Z,52.81
2018-09-11T13:20:32.651Z,53.07
2018-09-11T13:23:01.538Z,52.53
2018-09-11T13:25:30.457Z,52.66
2018-09-11T13:27:59.211Z,52.07
2018-09-11T13:30:28.292Z,51.66
2018-09-11T13:32:57.107Z,51.68
2018-09-11T13:35:26.577Z,50.74
2018-09-11T13:37:55.348Z,50.09
2018-09-11T13:40:24.170Z,50.58
2018-09-11T13:42:52.943Z,51.86
2018-09-11T13:45:21.793Z,52.39
2018-09-11T13:47:50.711Z,52.68
2018-09-11T13:50:19.492Z,53.52
2018-09-11T13:52:48.340Z,54.21
2018-09-11T13:55:17.124Z,52.99
2018-09-11T13:57:46.281Z,53.39
2018-09-11T14:00:15.259Z,54.02
2018-09-11T14:02:44.145Z,53.93
2018-09-11T14:05:12.886Z,53.92
2018-09-11T14:07:41.868Z,53.94
2018-09-11T14:10:10.670Z,54.62
2018-09-11T14:12:39.567Z,55.05
2018-09-11T14:15:08.505Z,55.56
2018-09-11T14:17:37.386Z,55.37
2018-09-11T14:20:06.830Z,55.54
2018-09-11T14:22:35.706Z,55.23
2018-09-11T14:25:04.733Z,56.20
2018-09-11T14:27:33.567Z,55.91
2018-09-11T14:30:02.360Z,55.98
2018-09-11T14:32:31.170Z,56.45
2018-09-11T14:34:59.936Z,56.17
2018-09-11T14:37:29.118Z,57.13
2018-09-11T14:39:57.889Z,56.63
2018-09-11T14:42:26.664Z,57.40
2018-09-11T14:44:55.475Z,57.34
2018-09-11T14:47:27.618Z,56.80
2018-09-11T14:49:56.527Z,57.37
2018-09-11T14:52:25.320Z,57.03
2018-09-11T14:54:54.159Z,56.78
2018-09-11T14:57:23.000Z,56.93
2018-09-11T14:59:51.942Z,57.57
2018-09-11T15:02:21.163Z,57.36
2018-09-11T15:04:49.999Z,57.18
2018-09-11T15:07:18.933Z,57.76
2018-09-11T15:09:47.735Z,57.79
2018-09-11T15:12:16.572Z,57.78
2018-09-11T15:14:45.599Z,58.13
2018-09-11T15:17:15.091Z,57.41
2018-09-11T15:19:43.924Z,57.96
2018-09-11T15:22:12.786Z,58.21
2018-09-11T15:24:41.676Z,58.36
2018-09-11T15:27:10.577Z,58.88
2018-09-11T15:29:39.536Z,59.40
2018-09-11T15:32:08.471Z,59.09
2018-09-11T15:34:37.262Z,59.43
2018-09-11T15:37:06.356Z,59.45
2018-09-11T15:39:35.241Z,59.59
2018-09-11T15:42:04.124Z,59.50
2018-09-11T15:44:32.955Z,60.09
2018-09-11T15:47:01.841Z,60.31
2018-09-11T15:49:30.591Z,61.00
2018-09-11T15:51:59.732Z,61.47
2018-09-11T15:54:28.507Z,62.13
2018-09-11T15:56:57.325Z,61.59
2018-09-11T15:59:26.144Z,62.87
2018-09-11T16:01:55.006Z,62.58
2018-09-11T16:04:23.869Z,62.90
2018-09-11T16:06:52.740Z,63.32
2018-09-11T16:09:21.571Z,63.17
2018-09-11T16:11:50.475Z,63.10
2018-09-11T16:14:19.276Z,63.28
2018-09-11T16:16:48.158Z,63.12
2018-09-11T16:19:16.996Z,64.17
2018-09-11T16:21:45.855Z,63.87
2018-09-11T16:24:14.648Z,63.79
2018-09-11T16:26:43.889Z,63.79
2018-09-11T16:29:12.840Z,64.51
2018-09-11T16:31:41.667Z,63.92
2018-09-11T16:34:10.543Z,63.79
2018-09-11T16:36:41.596Z,64.31
2018-09-11T16:39:12.022Z,64.41
2018-09-11T16:41:41.379Z,64.64
2018-09-11T16:44:10.198Z,65.06
2018-09-11T16:46:39.075Z,65.88
2018-09-11T16:49:08.503Z,65.91
2018-09-11T16:51:37.651Z,65.53
2018-09-11T16:54:06.956Z,66.35
2018-09-11T16:56:35.851Z,66.12
2018-09-11T16:59:04.779Z,67.07
2018-09-11T17:01:33.603Z,67.21
2018-09-11T17:04:02.454Z,68.04
2018-09-11T17:06:31.379Z,68.53
2018-09-11T17:09:00.211Z,68.24
2018-09-11T17:11:29.152Z,68.85
2018-09-11T17:13:58.000Z,69.24
2018-09-11T17:16:26.845Z,69.05
2018-09-11T17:18:56.834Z,69.59
2018-09-11T17:21:25.599Z,69.57
2018-09-11T17:23:54.430Z,69.06
2018-09-11T17:26:24.102Z,69.53
2018-09-11T17:28:53.447Z,69.94
2018-09-11T17:31:22.407Z,69.99
2018-09-11T17:33:51.386Z,69.77
2018-09-11T17:36:20.633Z,70.11
2018-09-11T17:38:49.432Z,69.75
2018-09-11T17:41:19.623Z,70.42
2018-09-11T17:43:48.509Z,71.03
2018-09-11T17:46:18.327Z,70.62
2018-09-11T17:48:47.131Z,70.73
2018-09-11T17:51:16.890Z,70.84
2018-09-11T17:53:45.856Z,70.59
2018-09-11T17:56:15.204Z,71.57
2018-09-11T17:58:44.027Z,71.31
2018-09-11T18:01:12.852Z,70.53
2018-09-11T18:03:41.656Z,71.24
2018-09-11T18:06:10.588Z,71.08
2018-09-11T18:08:39.443Z,71.11
2018-09-11T18:11:08.287Z,71.61
2018-09-11T18:13:37.153Z,71.61
2018-09-11T18:16:06.035Z,72.07
2018-09-11T18:18:34.883Z,71.52
2018-09-11T18:21:03.918Z,71.73
2018-09-11T18:23:33.014Z,71.86
2018-09-11T18:26:02.589Z,71.95
2018-09-11T18:28:31.428Z,71.63
2018-09-11T18:31:00.327Z,71.90
2018-09-11T18:33:29.204Z,72.34
2018-09-11T18:35:58.000Z,72.29
2018-09-11T18:38:26.865Z,72.23
2018-09-11T18:40:55.678Z,72.56
2018-09-11T18:43:24.528Z,72.00
2018-09-11T18:46:00.567Z,72.97
2018-09-11T18:48:29.404Z,72.18
2018-09-11T18:50:58.201Z,72.55
2018-09-11T18:53:27.762Z,71.97
2018-09-11T18:55:56.596Z,72.39
2018-09-11T18:58:26.020Z,72.49
2018-09-11T19:00:54.827Z,73.32
2018-09-11T19:03:24.490Z,73.17
2018-09-11T19:05:53.887Z,73.35
2018-09-11T19:08:23.495Z,73.31
2018-09-11T19:10:52.821Z,73.30
2018-09-11T19:13:21.659Z,73.54
2018-09-11T19:15:50.627Z,72.55
2018-09-11T19:18:19.990Z,73.38
2018-09-11T19:20:48.836Z,72.46
2018-09-11T19:23:17.684Z,73.01
2018-09-11T19:25:46.473Z,73.17
2018-09-11T19:28:15.393Z,73.55
2018-09-11T19:30:44.451Z,72.92
2018-09-11T19:33:13.860Z,72.88
2018-09-11T19:35:43.184Z,73.45
2018-09-11T19:38:12.046Z,74.00
2018-09-11T19:40:40.844Z,72.99
2018-09-11T19:43:09.764Z,73.33
2018-09-11T19:45:41.532Z,72.89
2018-09-11T19:48:10.329Z,73.37
2018-09-11T19:50:39.632Z,73.37
2018-09-11T19:53:08.439Z,73.46
2018-09-11T19:55:37.296Z,73.25
2018-09-11T19:58:06.327Z,74.45
2018-09-11T20:00:35.131Z,73.35
2018-09-11T20:03:03.928Z,73.34
2018-09-11T20:05:32.747Z,72.90
2018-09-11T20:08:02.254Z,73.44
2018-09-11T20:10:32.077Z,73.65
2018-09-11T20:13:00.985Z,73.08
2018-09-11T20:15:29.816Z,73.91
2018-09-11T20:17:58.599Z,73.32
2018-09-11T20:20:27.519Z,73.17
2018-09-11T20:22:56.435Z,73.18
2018-09-11T20:25:25.281Z,73.80
2018-09-11T20:27:54.152Z,73.56
2018-09-11T20:30:22.983Z,73.50
2018-09-11T20:32:51.846Z,73.71
2018-09-11T20:35:20.747Z,73.48
2018-09-11T20:37:49.573Z,73.10
2018-09-11T20:40:22.793Z,73.09
2018-09-11T20:42:51.611Z,72.85
2018-09-11T20:45:20.473Z,73.34
2018-09-11T20:47:49.355Z,72.42
2018-09-11T20:50:18.581Z,72.19
2018-09-11T20:52:47.429Z,72.15
2018-09-11T20:55:16.192Z,72.28
2018-09-11T20:57:45.013Z,72.24
2018-09-11T21:00:13.910Z,72.30
2018-09-11T21:02:42.745Z,72.26
2018-09-11T21:05:11.529Z,72.70
2018-09-11T21:07:40.411Z,72.83
2018-09-11T21:10:09.211Z,73.06
2018-09-11T21:12:38.320Z,72.69
2018-09-11T21:15:07.135Z,73.47
2018-09-11T21:17:35.993Z,73.00
2018-09-11T21:20:05.239Z,73.23
2018-09-11T21:22:34.078Z,72.79
2018-09-11T21:25:03.078Z,72.33
2018-09-11T21:27:31.874Z,72.54
2018-09-11T21:30:00.682Z,72.57
2018-09-11T21:32:29.527Z,72.31
2018-09-11T21:34:58.351Z,71.92
2018-09-11T21:37:27.212Z,71.66
2018-09-11T21:39:56.051Z,71.56
2018-09-11T21:42:25.108Z,71.66
2018-09-11T21:44:53.956Z,71.38
2018-09-11T21:47:22.719Z,71.64
2018-09-11T21:49:51.651Z,71.40
2018-09-11T21:52:20.439Z,72.18
2018-09-11T21:54:49.267Z,72.64
2018-09-11T21:57:18.067Z,73.04
2018-09-11T21:59:46.936Z,73.19
2018-09-11T22:02:15.763Z,73.65
2018-09-11T22:04:44.588Z,73.84
2018-09-11T22:07:13.456Z,73.44
2018-09-11T22:09:42.304Z,73.98
2018-09-11T22:12:11.122Z,73.78
2018-09-11T22:14:40.052Z,74.58
2018-09-11T22:17:08.853Z,74.07
2018-09-11T22:19:38.054Z,74.22
2018-09-11T22:22:06.955Z,73.93
2018-09-11T22:24:36.134Z,74.00
2018-09-11T22:27:05.260Z,73.90
2018-09-11T22:29:34.132Z,74.56
2018-09-11T22:32:02.908Z,74.38
2018-09-11T22:34:31.710Z,74.19
2018-09-11T22:37:00.588Z,73.92
2018-09-11T22:39:29.472Z,73.71
2018-09-11T22:41:58.386Z,73.96
2018-09-11T22:44:27.152Z,74.33
2018-09-11T22:46:56.009Z,73.67
2018-09-11T22:49:24.823Z,74.04
2018-09-11T22:51:53.710Z,73.69
2018-09-11T22:54:22.507Z,74.03
2018-09-11T22:56:51.483Z,74.01
2018-09-11T22:59:20.296Z,73.84
2018-09-11T23:01:49.151Z,73.44
2018-09-11T23:04:18.053Z,73.40
2018-09-11T23:06:46.928Z,73.72
2018-09-11T23:09:15.679Z,73.28
2018-09-11T23:11:44.820Z,74.06
2018-09-11T23:14:13.666Z,73.91
2018-09-11T23:16:42.600Z,73.07
2018-09-11T23:19:11.440Z,74.34
2018-09-11T23:21:40.224Z,73.51
2018-09-11T23:24:09.035Z,74.00
2018-09-11T23:26:37.824Z,73.59
2018-09-11T23:29:06.719Z,74.06
2018-09-11T23:31:35.582Z,74.06
2018-09-11T23:34:04.441Z,74.20
2018-09-11T23:36:33.235Z,74.17
2018-09-11T23:39:02.197Z,74.93
2018-09-11T23:41:31.256Z,74.79
2018-09-11T23:44:00.173Z,74.30
2018-09-11T23:46:29.282Z,74.76
2018-09-11T23:48:58.100Z,74.79
2018-09-11T23:51:26.859Z,75.61
2018-09-11T23:53:55.735Z,75.08
2018-09-11T23:56:24.520Z,75.12
2018-09-11T23:58:53.323Z,75.07
